createdAt,value
2022-08-18T00:01:00.840Z,99250.56
2022-08-18T00:02:09.238Z,99238.73
2022-08-18T00:03:27.250Z,99238.73
2022-08-18T00:04:34.035Z,99245.16
2022-08-18T00:05:21.361Z,99240.60
2022-08-18T00:06:28.316Z,99251.41
2022-08-18T00:07:32.154Z,99248.70
2022-08-18T00:08:38.429Z,99243.46
2022-08-18T00:09:38.841Z,99238.67
2022-08-18T00:10:41.859Z,99244.88
2022-08-18T00:11:45.649Z,99234.55
2022-08-18T00:12:48.208Z,99239.23
2022-08-18T00:13:50.649Z,99238.41
2022-08-18T00:14:53.500Z,99237.38
2022-08-18T00:15:55.746Z,99242.77
2022-08-18T00:16:59.154Z,99245.34
2022-08-18T00:18:01.919Z,99244.32
2022-08-18T00:19:09.236Z,99241.63
2022-08-18T00:21:23.866Z,99244.07
2022-08-18T00:22:27.053Z,99243.33
2022-08-18T00:23:31.196Z,99249.40
2022-08-18T00:24:33.736Z,99245.86
2022-08-18T00:25:37.112Z,99250.27
2022-08-18T00:26:53.090Z,99249.27
2022-08-18T00:27:55.511Z,99245.55
2022-08-18T00:28:58.738Z,99247.41
2022-08-18T00:30:01.830Z,99251.11
2022-08-18T00:31:05.100Z,99243.00
2022-08-18T00:32:15.442Z,99243.00
2022-08-18T00:33:18.139Z,99245.70
2022-08-18T00:34:20.542Z,99244.71
2022-08-18T00:35:28.931Z,99246.57
2022-08-18T00:36:32.102Z,99246.57
2022-08-18T00:37:36.128Z,99238.48
2022-08-18T00:38:38.544Z,99243.00
2022-08-18T00:39:47.395Z,99243.16
2022-08-18T00:40:47.751Z,99242.33
2022-08-18T00:41:52.152Z,99238.77
2022-08-18T00:42:56.633Z,99236.06
2022-08-18T00:43:59.254Z,99242.33
2022-08-18T00:45:03.915Z,99238.77
2022-08-18T00:47:41.360Z,99240.38
2022-08-18T00:48:25.074Z,99245.03
2022-08-18T00:49:27.797Z,99244.16
2022-08-18T00:50:35.499Z,99245.19
2022-08-18T00:53:02.411Z,99239.54
2022-08-18T00:55:31.951Z,99239.54
2022-08-18T00:56:40.289Z,99242.48
2022-08-18T00:57:42.607Z,99242.48
2022-08-18T01:00:06.575Z,99235.14
2022-08-18T01:01:08.881Z,99237.09
2022-08-18T01:02:19.752Z,99231.53
2022-08-18T01:03:24.754Z,99226.14
2022-08-18T01:04:39.732Z,99235.06
2022-08-18T01:07:19.662Z,99236.84
2022-08-18T01:08:28.767Z,99234.39
2022-08-18T01:09:27.680Z,99239.95
2022-08-18T01:10:31.614Z,99234.55
2022-08-18T01:11:36.400Z,99232.84
2022-08-18T01:12:44.939Z,99236.55
2022-08-18T01:13:44.443Z,99240.95
2022-08-18T01:14:46.763Z,99240.95
2022-08-18T01:15:49.160Z,99238.25
2022-08-18T01:16:56.770Z,99239.08
2022-08-18T01:17:59.065Z,99239.23
2022-08-18T01:19:01.885Z,99243.64
2022-08-18T01:20:05.286Z,99238.41
2022-08-18T01:21:17.621Z,99236.55
2022-08-18T01:22:40.565Z,99240.95
2022-08-18T01:23:43.852Z,99243.64
2022-08-18T01:24:46.270Z,99237.38
2022-08-18T01:25:49.342Z,99239.95
2022-08-18T01:26:51.891Z,99239.08
2022-08-18T01:27:54.181Z,99244.48
2022-08-18T01:29:01.317Z,99247.34
2022-08-18T01:30:06.555Z,99247.34
2022-08-18T01:31:09.106Z,99246.50
2022-08-18T01:32:14.267Z,99249.20
2022-08-18T01:33:17.342Z,99244.64
2022-08-18T01:34:22.009Z,99250.20
2022-08-18T01:35:25.648Z,99244.80
2022-08-18T01:36:28.980Z,99243.96
2022-08-18T01:37:31.446Z,99247.50
2022-08-18T01:38:33.716Z,99246.66
2022-08-18T01:41:17.335Z,99251.19
2022-08-18T01:41:23.249Z,99244.09
2022-08-18T01:41:45.960Z,99246.66
2022-08-18T01:42:50.024Z,99249.36
2022-08-18T01:43:52.469Z,99247.66
2022-08-18T01:44:54.797Z,99253.73
2022-08-18T01:45:57.173Z,99256.43
2022-08-18T01:46:59.552Z,99248.33
2022-08-18T01:48:02.712Z,99250.20
2022-08-18T01:49:05.631Z,99251.19
2022-08-18T01:50:11.392Z,99238.84
2022-08-18T01:51:14.320Z,99238.84
2022-08-18T01:52:18.340Z,99254.20
2022-08-18T01:53:20.706Z,99248.97
2022-08-18T01:54:22.969Z,99257.06
2022-08-18T01:55:25.943Z,99256.20
2022-08-18T01:56:31.208Z,99253.50
2022-08-18T01:57:36.094Z,99247.27
2022-08-18T01:58:45.223Z,99256.20
2022-08-18T01:59:47.683Z,99247.27
2022-08-18T02:00:50.833Z,99255.20
2022-08-18T02:01:53.659Z,99258.06
2022-08-18T02:03:01.957Z,99254.52
2022-08-18T02:04:31.071Z,99248.26
2022-08-18T02:05:11.576Z,99255.36
2022-08-18T02:06:15.441Z,99259.05
2022-08-18T02:07:18.860Z,99259.05
2022-08-18T02:08:21.112Z,99254.36
2022-08-18T02:09:24.474Z,99253.66
2022-08-18T02:10:28.950Z,99257.22
2022-08-18T02:11:31.994Z,99251.83
2022-08-18T02:12:34.441Z,99254.52
2022-08-18T02:13:37.846Z,99253.66
2022-08-18T02:14:41.736Z,99247.58
2022-08-18T02:15:45.741Z,99246.74
2022-08-18T02:16:48.192Z,99256.52
2022-08-18T02:17:51.468Z,99255.67
2022-08-18T02:18:54.696Z,99254.68
2022-08-18T02:19:57.547Z,99252.97
2022-08-18T02:21:10.452Z,99252.14
2022-08-18T02:22:16.454Z,99246.74
2022-08-18T02:23:19.472Z,99252.27
2022-08-18T02:24:22.134Z,99251.27
2022-08-18T02:25:24.914Z,99248.73
2022-08-18T02:26:28.001Z,99250.44
2022-08-18T02:27:30.375Z,99249.56
2022-08-18T02:28:32.721Z,99251.27
2022-08-18T02:29:35.330Z,99255.83
2022-08-18T02:30:38.244Z,99252.27
2022-08-18T02:31:40.934Z,99257.66
2022-08-18T02:32:43.913Z,99257.66
2022-08-18T02:33:51.960Z,99256.83
2022-08-18T02:34:50.585Z,99257.66
2022-08-18T02:35:55.700Z,99249.73
2022-08-18T02:36:59.630Z,99252.42
2022-08-18T02:38:03.894Z,99254.13
2022-08-18T02:39:07.297Z,99255.98
2022-08-18T02:40:11.168Z,99253.14
2022-08-18T02:41:17.240Z,99254.84
2022-08-18T02:42:19.540Z,99253.14
2022-08-18T02:43:22.107Z,99254.97
2022-08-18T02:44:24.581Z,99259.37
2022-08-18T02:45:26.780Z,99258.53
2022-08-18T02:46:31.289Z,99254.97
2022-08-18T02:47:34.078Z,99262.22
2022-08-18T02:48:37.259Z,99261.39
2022-08-18T02:49:39.835Z,99262.37
2022-08-18T02:50:43.104Z,99256.98
2022-08-18T02:51:46.709Z,99258.84
2022-08-18T02:52:49.269Z,99259.69
2022-08-18T02:53:51.654Z,99267.78
2022-08-18T02:54:55.869Z,99262.54
2022-08-18T02:57:19.582Z,99255.20
2022-08-18T02:58:22.184Z,99252.58
2022-08-18T02:59:26.175Z,99264.24
2022-08-18T03:00:30.196Z,99257.14
2022-08-18T03:01:35.684Z,99263.38
2022-08-18T03:02:38.889Z,99266.08
2022-08-18T03:03:41.322Z,99264.24
2022-08-18T03:04:44.081Z,99268.77
2022-08-18T03:05:46.358Z,99265.23
2022-08-18T03:06:49.572Z,99267.94
2022-08-18T03:07:52.767Z,99268.77
2022-08-18T03:08:55.376Z,99269.64
2022-08-18T03:09:59.155Z,99269.64
2022-08-18T03:11:01.981Z,99263.38
2022-08-18T03:12:05.266Z,99267.94
2022-08-18T03:13:07.584Z,99269.64
2022-08-18T03:14:11.942Z,99265.23
2022-08-18T03:15:14.522Z,99269.77
2022-08-18T03:16:17.850Z,99269.77
2022-08-18T03:17:21.137Z,99267.06
2022-08-18T03:18:23.635Z,99272.47
2022-08-18T03:19:27.014Z,99271.63
2022-08-18T03:20:31.558Z,99272.47
2022-08-18T03:21:35.023Z,99281.42
2022-08-18T03:22:38.005Z,99276.03
2022-08-18T03:23:42.734Z,99281.58
2022-08-18T03:24:45.207Z,99278.14
2022-08-18T03:25:48.666Z,99282.55
2022-08-18T03:26:52.251Z,99279.84
2022-08-18T03:27:54.732Z,99281.70
2022-08-18T03:28:57.474Z,99288.94
2022-08-18T03:30:00.583Z,99284.53
2022-08-18T03:31:03.224Z,99281.98
2022-08-18T03:32:06.229Z,99279.45
2022-08-18T03:33:09.916Z,99280.31
2022-08-18T03:34:12.305Z,99281.31
2022-08-18T03:35:18.157Z,99283.84
2022-08-18T03:36:23.458Z,99285.71
2022-08-18T03:37:26.428Z,99273.89
2022-08-18T03:38:28.697Z,99283.02
2022-08-18T03:39:31.103Z,99288.41
2022-08-18T03:40:33.619Z,99285.71
2022-08-18T03:41:57.402Z,99286.55
2022-08-18T03:42:43.870Z,99288.41
2022-08-18T03:43:51.079Z,99284.00
2022-08-18T03:44:50.950Z,99284.84
2022-08-18T03:45:54.189Z,99282.14
2022-08-18T03:46:56.840Z,99286.55
2022-08-18T03:47:59.656Z,99287.38
2022-08-18T03:49:02.150Z,99287.38
2022-08-18T03:50:06.347Z,99285.71
2022-08-18T03:51:11.453Z,99291.95
2022-08-18T03:52:14.074Z,99283.84
2022-08-18T03:53:16.221Z,99286.70
2022-08-18T03:54:18.872Z,99290.39
2022-08-18T03:55:21.230Z,99291.55
2022-08-18T03:56:24.926Z,99296.94
2022-08-18T03:57:27.656Z,99289.72
2022-08-18T03:58:30.016Z,99296.78
2022-08-18T03:59:33.307Z,99292.25
2022-08-18T04:00:37.547Z,99296.94
2022-08-18T04:01:41.078Z,99289.99
2022-08-18T04:02:43.807Z,99289.99
2022-08-18T04:03:51.467Z,99295.02
2022-08-18T04:04:54.879Z,99295.45
2022-08-18T04:05:57.962Z,99296.91
2022-08-18T04:07:05.122Z,99292.28
2022-08-18T04:08:07.531Z,99295.88
2022-08-18T04:09:12.587Z,99298.63
2022-08-18T04:10:19.704Z,99294.23
2022-08-18T04:11:20.260Z,99294.28
2022-08-18T04:12:22.870Z,99292.19
2022-08-18T04:13:25.464Z,99286.38
2022-08-18T04:14:29.069Z,99298.45
2022-08-18T04:15:32.119Z,99291.80
2022-08-18T04:16:36.457Z,99307.28
2022-08-18T04:18:03.435Z,99297.64
2022-08-18T04:18:42.777Z,99290.70
2022-08-18T04:19:46.113Z,99294.68
2022-08-18T04:20:59.105Z,99298.66
2022-08-18T04:21:55.832Z,99292.85
2022-08-18T04:22:58.904Z,99296.67
2022-08-18T04:24:01.361Z,99287.77
2022-08-18T04:25:04.553Z,99293.98
2022-08-18T04:26:08.233Z,99285.22
2022-08-18T04:27:10.676Z,99283.95
2022-08-18T04:28:14.288Z,99293.02
2022-08-18T04:29:17.980Z,99285.93
2022-08-18T04:30:22.283Z,99288.62
2022-08-18T04:31:24.847Z,99292.18
2022-08-18T04:32:30.081Z,99283.12
2022-08-18T04:33:32.984Z,99292.03
2022-08-18T04:34:35.118Z,99283.12
2022-08-18T04:35:38.094Z,99292.87
2022-08-18T04:36:40.906Z,99283.95
2022-08-18T04:37:43.170Z,99283.12
2022-08-18T04:38:45.692Z,99285.81
2022-08-18T04:39:48.228Z,99288.50
2022-08-18T04:40:51.424Z,99284.94
2022-08-18T04:41:56.149Z,99281.41
2022-08-18T04:42:59.986Z,99287.63
2022-08-18T04:44:04.686Z,99290.33
2022-08-18T04:45:08.286Z,99288.36
2022-08-18T04:46:11.645Z,99288.20
2022-08-18T04:47:14.117Z,99291.59
2022-08-18T04:48:16.477Z,99298.68
2022-08-18T04:49:22.202Z,99291.44
2022-08-18T04:50:26.338Z,99299.37
2022-08-18T04:52:26.720Z,99293.15
2022-08-18T04:52:40.420Z,99281.53
2022-08-18T04:53:37.712Z,99297.55
2022-08-18T04:54:39.982Z,99294.86
2022-08-18T04:57:10.974Z,99307.02
2022-08-18T04:58:14.285Z,99296.95
2022-08-18T04:59:16.638Z,99307.73
2022-08-18T05:00:20.123Z,99310.00
2022-08-18T05:01:25.189Z,99314.11
2022-08-18T05:02:28.646Z,99312.10
2022-08-18T05:03:31.039Z,99310.13
2022-08-18T05:04:37.363Z,99314.34
2022-08-18T05:05:40.331Z,99302.58
2022-08-18T05:06:44.044Z,99303.45
2022-08-18T05:07:47.356Z,99304.59
2022-08-18T05:08:50.191Z,99313.66
2022-08-18T05:09:52.992Z,99314.64
2022-08-18T05:11:01.671Z,99312.67
2022-08-18T05:12:03.062Z,99309.83
2022-08-18T05:13:05.378Z,99313.51
2022-08-18T05:14:08.965Z,99320.03
2022-08-18T05:15:12.455Z,99320.33
2022-08-18T05:16:25.384Z,99316.80
2022-08-18T05:17:20.252Z,99317.94
2022-08-18T05:18:26.621Z,99319.22
2022-08-18T05:19:32.032Z,99321.05
2022-08-18T05:20:36.853Z,99319.22
2022-08-18T05:21:39.463Z,99319.77
2022-08-18T05:22:42.710Z,99316.80
2022-08-18T05:23:47.532Z,99316.50
2022-08-18T05:24:49.975Z,99314.34
2022-08-18T05:25:59.687Z,99307.13
2022-08-18T05:27:02.500Z,99314.08
2022-08-18T05:28:05.275Z,99317.31
2022-08-18T05:29:18.521Z,99314.62
2022-08-18T05:30:12.866Z,99320.99
2022-08-18T05:31:16.974Z,99311.23
2022-08-18T05:32:41.155Z,99310.36
2022-08-18T05:33:24.862Z,99313.78
2022-08-18T05:34:27.491Z,99303.84
2022-08-18T05:35:40.619Z,99316.02
2022-08-18T05:36:49.817Z,99311.20
2022-08-18T05:38:01.759Z,99313.75
2022-08-18T05:39:23.883Z,99309.05
2022-08-18T05:40:27.367Z,99315.30
2022-08-18T05:42:47.603Z,99304.33
2022-08-18T05:44:02.932Z,99316.86
2022-08-18T05:46:47.571Z,99312.41
2022-08-18T05:47:50.552Z,99315.30
2022-08-18T05:48:53.121Z,99316.29
2022-08-18T05:49:57.072Z,99316.44
2022-08-18T05:51:01.025Z,99315.72
2022-08-18T05:53:17.809Z,99311.59
2022-08-18T05:54:22.232Z,99311.09
2022-08-18T05:55:28.490Z,99315.91
2022-08-18T05:56:33.449Z,99307.97
2022-08-18T05:58:53.785Z,99312.49
2022-08-18T05:59:56.000Z,99311.38
2022-08-18T06:05:13.250Z,99324.41
2022-08-18T06:06:19.195Z,99321.56
2022-08-18T06:08:56.768Z,99320.80
2022-08-18T06:09:59.921Z,99316.29
2022-08-18T06:11:03.203Z,99317.13
2022-08-18T06:13:59.398Z,99318.84
2022-08-18T06:16:29.249Z,99319.52
2022-08-18T06:17:35.817Z,99319.55
2022-08-18T06:20:22.489Z,99334.42
2022-08-18T06:21:39.380Z,99326.20
2022-08-18T06:24:12.610Z,99327.44
2022-08-18T06:25:19.788Z,99328.44
2022-08-18T06:26:46.397Z,99331.13
2022-08-18T06:29:48.004Z,99325.89
2022-08-18T06:31:03.852Z,99330.30
2022-08-18T06:32:10.108Z,99330.56
2022-08-18T06:33:28.955Z,99334.44
2022-08-18T06:34:37.724Z,99333.72
2022-08-18T06:35:52.045Z,99330.03
2022-08-18T06:37:00.785Z,99328.17
2022-08-18T06:38:18.519Z,99335.27
2022-08-18T06:39:30.828Z,99327.19
2022-08-18T06:40:33.407Z,99330.72
2022-08-18T06:41:47.504Z,99327.87
2022-08-18T06:42:52.164Z,99328.59
2022-08-18T06:44:03.744Z,99321.34
2022-08-18T06:45:11.617Z,99325.74
2022-08-18T06:46:18.647Z,99334.52
2022-08-18T06:47:55.061Z,99323.05
2022-08-18T06:49:01.237Z,99325.74
2022-08-18T06:51:26.554Z,99324.44
2022-08-18T06:52:31.811Z,99323.64
2022-08-18T06:53:57.093Z,99319.92
2022-08-18T06:56:27.067Z,99325.99
2022-08-18T07:57:35.452Z,99357.45
2022-08-18T07:58:49.143Z,99355.58
2022-08-18T08:01:38.909Z,99357.33
2022-08-18T08:02:57.428Z,99352.20
2022-08-18T08:04:25.435Z,99361.19
2022-08-18T08:05:51.107Z,99358.41
2022-08-18T08:08:19.633Z,99343.30
2022-08-18T08:11:16.394Z,99339.40
2022-08-18T08:12:25.287Z,99348.62
2022-08-18T08:13:57.596Z,99334.07
2022-08-18T08:14:58.322Z,99344.84
2022-08-18T08:16:19.878Z,99345.72
2022-08-18T08:17:32.235Z,99338.64
2022-08-18T08:18:47.498Z,99343.47
2022-08-18T08:21:32.354Z,99345.87
2022-08-18T08:22:58.091Z,99346.56
2022-08-18T08:24:19.304Z,99353.36
2022-08-18T08:25:45.635Z,99340.63
2022-08-18T08:26:54.415Z,99342.88
2022-08-18T08:28:26.476Z,99347.75
2022-08-18T08:29:39.273Z,99336.53
2022-08-18T08:32:12.288Z,99335.36
2022-08-18T08:33:21.838Z,99332.69
2022-08-18T08:34:51.302Z,99331.70
2022-08-18T08:36:08.043Z,99334.64
2022-08-18T08:37:13.079Z,99335.90
2022-08-18T08:38:40.284Z,99337.61
2022-08-18T08:39:42.822Z,99343.72
2022-08-18T08:40:52.621Z,99330.94
2022-08-18T08:43:19.143Z,99332.45
2022-08-18T08:44:26.794Z,99332.48
2022-08-18T08:45:34.251Z,99334.20
2022-08-18T08:48:09.034Z,99336.11
2022-08-18T08:49:32.354Z,99333.02
2022-08-18T08:51:57.418Z,99335.83
2022-08-18T08:53:12.519Z,99345.75
2022-08-18T08:54:26.425Z,99341.19
2022-08-18T08:55:37.242Z,99343.77
2022-08-18T08:56:46.373Z,99340.20
2022-08-18T08:58:08.755Z,99339.22
2022-08-18T08:59:14.235Z,99344.34
2022-08-18T09:00:18.690Z,99350.30
2022-08-18T09:01:33.760Z,99351.14
2022-08-18T09:02:57.128Z,99347.60
2022-08-18T09:03:56.819Z,99346.46
2022-08-18T09:05:14.890Z,99348.85
2022-08-18T09:06:41.149Z,99346.84
2022-08-18T09:08:08.825Z,99349.54
2022-08-18T09:10:47.426Z,99347.11
2022-08-18T09:12:17.559Z,99347.30
2022-08-18T09:13:44.936Z,99357.93
2022-08-18T09:15:11.431Z,99355.23
2022-08-18T09:16:21.750Z,99355.08
2022-08-18T09:17:57.637Z,99358.65
2022-08-18T09:21:17.831Z,99351.51
2022-08-18T09:24:20.296Z,99358.45
2022-08-18T09:27:25.086Z,99358.50
2022-08-18T09:28:31.172Z,99353.10
2022-08-18T09:31:09.253Z,99352.91
2022-08-18T09:32:22.626Z,99350.10
2022-08-18T09:33:34.496Z,99351.81
2022-08-18T09:35:00.176Z,99347.26
2022-08-18T09:36:10.612Z,99352.19
2022-08-18T09:38:39.977Z,99352.02
2022-08-18T09:41:02.592Z,99349.50
2022-08-18T09:42:01.576Z,99347.52
2022-08-18T09:43:15.492Z,99357.16
2022-08-18T09:44:46.306Z,99350.63
2022-08-18T09:47:08.457Z,99340.63
2022-08-18T09:50:59.946Z,99343.16
2022-08-18T09:53:52.759Z,99341.23
2022-08-18T09:55:04.580Z,99339.53
2022-08-18T09:56:08.488Z,99343.06
2022-08-18T09:57:19.553Z,99341.08
2022-08-18T09:58:29.343Z,99345.45
2022-08-18T10:01:22.804Z,99346.64
2022-08-18T10:04:34.547Z,99352.09
2022-08-18T10:05:37.185Z,99353.80
2022-08-18T10:06:43.169Z,99353.95
2022-08-18T10:07:58.305Z,99356.65
2022-08-18T10:09:26.927Z,99352.25
2022-08-18T10:12:22.170Z,99353.90
2022-08-18T10:13:38.629Z,99357.48
2022-08-18T10:16:18.962Z,99351.05
2022-08-18T10:19:00.519Z,99342.95
2022-08-18T10:22:58.004Z,99343.52
2022-08-18T10:25:30.393Z,99340.88
2022-08-18T10:26:38.407Z,99358.77
2022-08-18T10:27:47.886Z,99340.72
2022-08-18T10:28:54.432Z,99345.95
2022-08-18T10:29:57.853Z,99337.87
2022-08-18T10:31:06.282Z,99341.25
2022-08-18T10:32:15.414Z,99344.66
2022-08-18T10:35:56.527Z,99340.81
2022-08-18T10:37:00.211Z,99348.04
2022-08-18T10:38:24.454Z,99344.35
2022-08-18T10:39:42.029Z,99350.46
2022-08-18T10:43:57.459Z,99342.05
2022-08-18T10:44:57.794Z,99337.50
2022-08-18T10:46:25.060Z,99340.04
2022-08-18T10:47:12.014Z,99337.22
2022-08-18T10:51:13.413Z,99349.56
2022-08-18T10:55:48.197Z,99344.01
2022-08-18T10:56:48.979Z,99337.62
2022-08-18T10:58:28.195Z,99345.71
2022-08-18T10:59:49.071Z,99344.87
2022-08-18T11:00:44.820Z,99343.17
2022-08-18T11:02:16.578Z,99344.01
2022-08-18T11:04:47.156Z,99344.81
2022-08-18T11:07:20.697Z,99350.20
2022-08-18T11:09:51.033Z,99348.41
2022-08-18T11:12:13.064Z,99349.12
2022-08-18T11:13:52.062Z,99350.80
2022-08-18T11:19:42.077Z,99351.13
2022-08-18T11:20:47.428Z,99349.66
2022-08-18T11:21:51.600Z,99342.42
2022-08-18T11:24:20.818Z,99346.80
2022-08-18T11:25:34.042Z,99335.01
2022-08-18T11:29:34.419Z,99336.72
2022-08-18T11:30:37.279Z,99336.72
2022-08-18T11:33:04.189Z,99338.42
2022-08-18T11:35:23.177Z,99338.87
2022-08-18T11:36:29.899Z,99336.40
2022-08-18T11:37:52.462Z,99336.40
2022-08-18T11:38:55.098Z,99335.41
2022-08-18T11:39:58.988Z,99336.09
2022-08-18T11:41:20.405Z,99331.56
2022-08-18T11:42:33.448Z,99334.09
2022-08-18T11:43:41.260Z,99332.23
2022-08-18T11:44:42.487Z,99332.23
2022-08-18T11:45:49.318Z,99335.77
2022-08-18T11:46:55.833Z,99333.78
2022-08-18T11:48:11.787Z,99329.38
2022-08-18T11:49:30.604Z,99337.32
2022-08-18T11:50:39.111Z,99327.39
2022-08-18T11:51:55.447Z,99327.39
2022-08-18T11:53:14.558Z,99335.33
2022-08-18T11:54:21.123Z,99329.94
2022-08-18T11:55:30.376Z,99322.67
2022-08-18T11:56:35.718Z,99331.64
2022-08-18T11:57:51.130Z,99329.06
2022-08-18T11:59:11.564Z,99329.94
2022-08-18T12:00:43.134Z,99325.38
2022-08-18T12:01:52.279Z,99319.97
2022-08-18T12:03:09.450Z,99325.38
2022-08-18T12:04:18.930Z,99319.97
2022-08-18T12:05:21.487Z,99322.67
2022-08-18T12:06:30.520Z,99318.27
2022-08-18T12:07:34.300Z,99325.38
2022-08-18T12:10:26.119Z,99322.43
2022-08-18T12:11:31.577Z,99326.23
2022-08-18T12:12:35.021Z,99319.97
2022-08-18T12:13:44.172Z,99318.98
2022-08-18T12:16:21.344Z,99319.81
2022-08-18T12:17:24.782Z,99318.81
2022-08-18T12:18:29.978Z,99321.52
2022-08-18T12:19:34.342Z,99317.98
2022-08-18T12:20:38.497Z,99323.22
2022-08-18T12:21:53.506Z,99322.23
2022-08-18T12:22:57.257Z,99319.38
2022-08-18T12:23:59.614Z,99327.31
2022-08-18T12:25:04.267Z,99328.15
2022-08-18T12:26:18.767Z,99319.22
2022-08-18T12:28:22.205Z,99331.56
2022-08-18T12:29:32.616Z,99326.16
2022-08-18T12:30:31.807Z,99332.23
2022-08-18T12:31:42.410Z,99337.64
2022-08-18T12:32:48.939Z,99330.37
2022-08-18T12:33:48.253Z,99333.08
2022-08-18T12:34:49.014Z,99329.38
2022-08-18T12:35:53.377Z,99322.98
2022-08-18T12:36:57.592Z,99322.98
2022-08-18T12:38:05.005Z,99326.52
2022-08-18T12:39:24.452Z,99327.39
2022-08-18T12:40:28.326Z,99331.76
2022-08-18T12:41:30.981Z,99333.47
2022-08-18T12:42:34.869Z,99322.66
2022-08-18T12:43:38.922Z,99325.20
2022-08-18T12:44:42.245Z,99331.47
2022-08-18T12:45:47.280Z,99325.05
2022-08-18T12:46:50.146Z,99322.19
2022-08-18T12:47:53.183Z,99315.11
2022-08-18T12:48:55.440Z,99317.81
2022-08-18T12:49:58.804Z,99318.65
2022-08-18T12:51:05.897Z,99316.78
2022-08-18T12:52:07.789Z,99325.76
2022-08-18T12:53:12.098Z,99314.95
2022-08-18T12:54:14.542Z,99319.36
2022-08-18T12:57:52.512Z,99310.88
2022-08-18T12:58:40.910Z,99308.39
2022-08-18T12:59:43.969Z,99313.80
2022-08-18T13:00:48.340Z,99303.83
2022-08-18T13:01:58.348Z,99312.77
2022-08-18T13:02:57.150Z,99312.64
2022-08-18T13:04:13.280Z,99310.78
2022-08-18T13:05:06.544Z,99317.88
2022-08-18T13:06:09.808Z,99310.62
2022-08-18T13:07:13.727Z,99316.86
2022-08-18T13:08:27.709Z,99312.33
2022-08-18T13:09:34.658Z,99314.02
2022-08-18T13:10:45.579Z,99308.63
2022-08-18T13:11:34.948Z,99312.16
2022-08-18T13:12:38.170Z,99311.20
2022-08-18T13:13:43.185Z,99311.20
2022-08-18T13:14:46.699Z,99311.20
2022-08-18T13:15:58.068Z,99311.88
2022-08-18T13:16:55.196Z,99304.77
2022-08-18T13:17:57.830Z,99312.71
2022-08-18T13:19:01.232Z,99311.88
2022-08-18T13:20:09.496Z,99300.23
2022-08-18T13:21:16.619Z,99300.23
2022-08-18T13:22:19.599Z,99299.20
2022-08-18T13:23:25.146Z,99303.77
2022-08-18T13:24:28.690Z,99299.20
2022-08-18T13:25:33.055Z,99302.77
2022-08-18T13:26:38.038Z,99300.07
2022-08-18T13:27:43.521Z,99300.07
2022-08-18T13:28:50.871Z,99303.45
2022-08-18T13:29:51.089Z,99303.45
2022-08-18T13:30:54.944Z,99301.78
2022-08-18T13:31:57.849Z,99294.51
2022-08-18T13:33:05.427Z,99289.95
2022-08-18T13:34:05.437Z,99303.45
2022-08-18T13:35:13.460Z,99305.98
2022-08-18T13:36:18.470Z,99298.75
2022-08-18T13:37:21.613Z,99302.29
2022-08-18T13:38:26.040Z,99299.42
2022-08-18T13:39:33.783Z,99301.13
2022-08-18T13:40:33.389Z,99301.13
2022-08-18T13:41:37.723Z,99306.38
2022-08-18T13:42:50.754Z,99306.38
2022-08-18T13:43:52.322Z,99302.67
2022-08-18T13:45:22.762Z,99296.27
2022-08-18T13:46:05.184Z,99301.67
2022-08-18T13:47:09.083Z,99299.81
2022-08-18T13:48:11.649Z,99304.22
2022-08-18T13:49:18.585Z,99303.19
2022-08-18T13:50:29.570Z,99305.05
2022-08-18T13:51:30.313Z,99311.30
2022-08-18T13:52:34.653Z,99299.48
2022-08-18T13:53:50.466Z,99303.06
2022-08-18T13:54:42.848Z,99307.43
2022-08-18T13:55:47.037Z,99295.62
2022-08-18T13:56:52.210Z,99308.14
2022-08-18T13:57:55.228Z,99308.14
2022-08-18T13:58:59.282Z,99316.08
2022-08-18T14:00:02.355Z,99307.97
2022-08-18T14:02:12.319Z,99320.33
2022-08-18T14:03:30.748Z,99317.63
2022-08-18T14:04:20.836Z,99317.46
2022-08-18T14:05:36.649Z,99323.70
2022-08-18T14:06:29.505Z,99326.23
2022-08-18T14:07:31.925Z,99334.19
2022-08-18T14:08:36.097Z,99334.19
2022-08-18T14:09:40.512Z,99331.35
2022-08-18T14:10:43.137Z,99334.89
2022-08-18T14:11:45.414Z,99337.44
2022-08-18T14:12:52.367Z,99328.48
2022-08-18T14:13:55.121Z,99341.84
2022-08-18T14:14:59.150Z,99332.86
2022-08-18T14:16:02.905Z,99338.14
2022-08-18T14:17:05.819Z,99335.44
2022-08-18T14:18:09.586Z,99337.11
2022-08-18T14:19:14.875Z,99336.27
2022-08-18T14:20:21.551Z,99335.27
2022-08-18T14:21:25.645Z,99336.11
2022-08-18T14:22:29.687Z,99323.25
2022-08-18T14:23:32.466Z,99330.70
2022-08-18T14:24:36.813Z,99334.24
2022-08-18T14:25:39.695Z,99334.24
2022-08-18T14:26:42.834Z,99341.52
2022-08-18T14:27:56.072Z,99340.52
2022-08-18T14:28:52.620Z,99343.22
2022-08-18T14:29:55.862Z,99337.81
2022-08-18T14:30:59.747Z,99346.75
2022-08-18T14:32:02.530Z,99347.59
2022-08-18T14:33:06.601Z,99346.75
2022-08-18T14:34:11.046Z,99341.35
2022-08-18T14:35:34.054Z,99346.59
2022-08-18T14:36:29.922Z,99342.89
2022-08-18T14:37:27.178Z,99343.73
2022-08-18T14:38:29.679Z,99341.89
2022-08-18T14:39:33.725Z,99348.97
2022-08-18T14:40:41.856Z,99341.73
2022-08-18T14:41:54.891Z,99347.14
2022-08-18T14:42:55.002Z,99352.38
2022-08-18T14:44:11.985Z,99338.03
2022-08-18T14:46:10.656Z,99335.05
2022-08-18T14:47:14.223Z,99352.22
2022-08-18T14:48:20.238Z,99352.22
2022-08-18T14:49:28.088Z,99361.16
2022-08-18T14:50:28.948Z,99352.92
2022-08-18T14:51:35.607Z,99351.05
2022-08-18T14:52:40.153Z,99346.32
2022-08-18T14:53:42.958Z,99349.03
2022-08-18T14:54:51.115Z,99344.48
2022-08-18T14:55:51.626Z,99353.27
2022-08-18T14:56:54.539Z,99355.97
2022-08-18T14:57:59.592Z,99352.44
2022-08-18T14:59:04.679Z,99350.56
2022-08-18T15:00:12.672Z,99354.14
2022-08-18T15:01:16.092Z,99348.73
2022-08-18T15:02:20.354Z,99351.44
2022-08-18T15:03:30.878Z,99349.73
2022-08-18T15:04:28.878Z,99344.33
2022-08-18T15:05:33.841Z,99359.67
2022-08-18T15:06:41.225Z,99350.73
2022-08-18T15:07:44.415Z,99352.44
2022-08-18T15:08:48.564Z,99355.14
2022-08-18T15:09:51.283Z,99351.56
2022-08-18T15:10:57.195Z,99363.25
2022-08-18T15:12:00.874Z,99355.14
2022-08-18T15:13:05.509Z,99361.37
2022-08-18T15:14:08.594Z,99365.95
2022-08-18T15:15:17.694Z,99372.19
2022-08-18T15:16:18.315Z,99372.19
2022-08-18T15:17:21.962Z,99366.78
2022-08-18T15:18:25.539Z,99370.36
2022-08-18T15:19:59.193Z,99368.66
2022-08-18T15:20:35.631Z,99375.77
2022-08-18T15:21:39.122Z,99378.47
2022-08-18T15:22:43.188Z,99375.77
2022-08-18T15:23:45.744Z,99376.44
2022-08-18T15:24:49.647Z,99379.14
2022-08-18T15:25:53.259Z,99378.14
2022-08-18T15:26:57.518Z,99385.38
2022-08-18T15:28:00.327Z,99381.68
2022-08-18T15:29:07.867Z,99386.09
2022-08-18T15:32:27.670Z,99383.09
2022-08-18T15:33:32.366Z,99388.66
2022-08-18T15:34:47.342Z,99381.25
2022-08-18T15:35:44.426Z,99383.96
2022-08-18T15:36:48.412Z,99384.63
2022-08-18T15:37:54.270Z,99375.69
2022-08-18T15:40:41.225Z,99369.13
2022-08-18T15:41:44.207Z,99380.06
2022-08-18T15:42:46.150Z,99377.36
2022-08-18T15:43:49.467Z,99371.95
2022-08-18T15:44:53.664Z,99372.81
2022-08-18T15:45:58.648Z,99368.41
2022-08-18T15:47:02.064Z,99372.81
2022-08-18T15:48:04.669Z,99379.06
2022-08-18T15:49:15.049Z,99377.36
2022-08-18T15:50:21.666Z,99372.81
2022-08-18T15:51:19.134Z,99370.12
2022-08-18T15:52:23.404Z,99376.36
2022-08-18T15:53:29.713Z,99375.52
2022-08-18T15:54:30.586Z,99370.12
2022-08-18T15:55:37.445Z,99370.95